sensor_id;sensor_type;location;lat;lon;timestamp;P1;durP1;ratioP1;P2;durP2;ratioP2
50683;SDS011;36654;45.042;38.994;2022-09-27T00:00:29;11.75;;;6.38;;
50683;SDS011;36654;45.042;38.994;2022-09-27T00:02:55;11.30;;;6.03;;
50683;SDS011;36654;45.042;38.994;2022-09-27T00:05:21;11.43;;;5.47;;
50683;SDS011;36654;45.042;38.994;2022-09-27T00:07:47;14.75;;;6.07;;
50683;SDS011;36654;45.042;38.994;2022-09-27T00:10:13;8.40;;;4.30;;
50683;SDS011;36654;45.042;38.994;2022-09-27T00:12:39;9.57;;;4.55;;
50683;SDS011;36654;45.042;38.994;2022-09-27T00:15:05;7.97;;;4.22;;
50683;SDS011;36654;45.042;38.994;2022-09-27T00:17:32;9.65;;;4.38;;
50683;SDS011;36654;45.042;38.994;2022-09-27T00:19:58;9.63;;;4.53;;
50683;SDS011;36654;45.042;38.994;2022-09-27T00:22:25;7.82;;;4.38;;
50683;SDS011;36654;45.042;38.994;2022-09-27T00:24:51;9.85;;;4.60;;
50683;SDS011;36654;45.042;38.994;2022-09-27T00:27:17;8.82;;;4.72;;
50683;SDS011;36654;45.042;38.994;2022-09-27T00:29:44;9.98;;;5.30;;
50683;SDS011;36654;45.042;38.994;2022-09-27T00:32:10;11.63;;;4.60;;
50683;SDS011;36654;45.042;38.994;2022-09-27T00:34:37;5.68;;;4.10;;
50683;SDS011;36654;45.042;38.994;2022-09-27T00:37:03;6.95;;;4.25;;
50683;SDS011;36654;45.042;38.994;2022-09-27T00:39:28;7.53;;;4.05;;
50683;SDS011;36654;45.042;38.994;2022-09-27T00:41:54;9.95;;;4.53;;
50683;SDS011;36654;45.042;38.994;2022-09-27T00:49:22;6.70;;;3.78;;
50683;SDS011;36654;45.042;38.994;2022-09-27T00:52:06;7.25;;;3.67;;
50683;SDS011;36654;45.042;38.994;2022-09-27T00:54:36;9.13;;;3.95;;
50683;SDS011;36654;45.042;38.994;2022-09-27T00:57:05;6.22;;;3.90;;
50683;SDS011;36654;45.042;38.994;2022-09-27T00:59:40;10.38;;;4.68;;
50683;SDS011;36654;45.042;38.994;2022-09-27T01:02:11;9.00;;;4.50;;
50683;SDS011;36654;45.042;38.994;2022-09-27T01:04:38;11.80;;;4.82;;
50683;SDS011;36654;45.042;38.994;2022-09-27T01:07:05;10.90;;;4.38;;
50683;SDS011;36654;45.042;38.994;2022-09-27T01:09:31;10.25;;;5.00;;
50683;SDS011;36654;45.042;38.994;2022-09-27T01:15:04;6.70;;;4.57;;
50683;SDS011;36654;45.042;38.994;2022-09-27T01:20:15;6.70;;;4.28;;
50683;SDS011;36654;45.042;38.994;2022-09-27T01:23:25;11.30;;;4.80;;
50683;SDS011;36654;45.042;38.994;2022-09-27T01:26:55;9.13;;;4.72;;
50683;SDS011;36654;45.042;38.994;2022-09-27T01:40:31;9.55;;;4.53;;
50683;SDS011;36654;45.042;38.994;2022-09-27T01:43:18;8.57;;;4.65;;
50683;SDS011;36654;45.042;38.994;2022-09-27T01:45:50;11.15;;;5.15;;
50683;SDS011;36654;45.042;38.994;2022-09-27T01:48:21;7.72;;;4.47;;
50683;SDS011;36654;45.042;38.994;2022-09-27T01:50:56;7.45;;;4.35;;
50683;SDS011;36654;45.042;38.994;2022-09-27T01:53:30;8.10;;;4.57;;
50683;SDS011;36654;45.042;38.994;2022-09-27T01:56:06;7.63;;;4.32;;
50683;SDS011;36654;45.042;38.994;2022-09-27T01:58:41;7.30;;;4.85;;
50683;SDS011;36654;45.042;38.994;2022-09-27T02:01:08;8.25;;;4.65;;
50683;SDS011;36654;45.042;38.994;2022-09-27T02:03:39;8.55;;;4.85;;
50683;SDS011;36654;45.042;38.994;2022-09-27T02:06:13;6.53;;;4.75;;
50683;SDS011;36654;45.042;38.994;2022-09-27T02:09:03;5.47;;;4.35;;
50683;SDS011;36654;45.042;38.994;2022-09-27T02:11:33;9.60;;;4.53;;
50683;SDS011;36654;45.042;38.994;2022-09-27T02:14:07;8.88;;;4.32;;
50683;SDS011;36654;45.042;38.994;2022-09-27T02:19:32;6.53;;;4.15;;
50683;SDS011;36654;45.042;38.994;2022-09-27T02:24:57;11.23;;;4.57;;
50683;SDS011;36654;45.042;38.994;2022-09-27T02:30:54;9.80;;;4.55;;
50683;SDS011;36654;45.042;38.994;2022-09-27T02:33:22;9.35;;;4.70;;
50683;SDS011;36654;45.042;38.994;2022-09-27T02:35:51;7.85;;;4.50;;
50683;SDS011;36654;45.042;38.994;2022-09-27T02:38:17;6.50;;;3.95;;
50683;SDS011;36654;45.042;38.994;2022-09-27T02:40:45;3.53;;;3.22;;
50683;SDS011;36654;45.042;38.994;2022-09-27T02:43:12;8.13;;;3.60;;
50683;SDS011;36654;45.042;38.994;2022-09-27T02:45:45;7.22;;;3.75;;
50683;SDS011;36654;45.042;38.994;2022-09-27T02:48:30;5.13;;;3.58;;
50683;SDS011;36654;45.042;38.994;2022-09-27T03:05:17;6.75;;;3.00;;
50683;SDS011;36654;45.042;38.994;2022-09-27T03:07:47;7.80;;;3.67;;
50683;SDS011;36654;45.042;38.994;2022-09-27T03:10:17;7.05;;;3.30;;
50683;SDS011;36654;45.042;38.994;2022-09-27T03:12:45;5.25;;;3.55;;
50683;SDS011;36654;45.042;38.994;2022-09-27T03:15:11;6.53;;;3.65;;
50683;SDS011;36654;45.042;38.994;2022-09-27T03:17:38;14.95;;;8.50;;
50683;SDS011;36654;45.042;38.994;2022-09-27T03:20:04;6.63;;;5.93;;
50683;SDS011;36654;45.042;38.994;2022-09-27T03:22:30;11.60;;;6.68;;
50683;SDS011;36654;45.042;38.994;2022-09-27T03:24:56;7.22;;;5.28;;
50683;SDS011;36654;45.042;38.994;2022-09-27T03:27:22;7.82;;;4.47;;
50683;SDS011;36654;45.042;38.994;2022-09-27T03:29:48;8.40;;;4.60;;
50683;SDS011;36654;45.042;38.994;2022-09-27T03:32:14;11.63;;;4.63;;
50683;SDS011;36654;45.042;38.994;2022-09-27T03:34:39;11.50;;;4.88;;
50683;SDS011;36654;45.042;38.994;2022-09-27T03:37:05;9.80;;;4.60;;
50683;SDS011;36654;45.042;38.994;2022-09-27T03:39:31;9.93;;;3.70;;
50683;SDS011;36654;45.042;38.994;2022-09-27T03:41:57;7.18;;;3.85;;
50683;SDS011;36654;45.042;38.994;2022-09-27T03:44:22;6.75;;;3.60;;
50683;SDS011;36654;45.042;38.994;2022-09-27T03:46:48;10.57;;;3.55;;
50683;SDS011;36654;45.042;38.994;2022-09-27T03:49:14;4.80;;;2.95;;
50683;SDS011;36654;45.042;38.994;2022-09-27T03:51:39;6.25;;;3.30;;
50683;SDS011;36654;45.042;38.994;2022-09-27T03:54:05;8.63;;;3.47;;
50683;SDS011;36654;45.042;38.994;2022-09-27T03:56:31;16.67;;;3.95;;
50683;SDS011;36654;45.042;38.994;2022-09-27T03:58:57;6.88;;;3.15;;
50683;SDS011;36654;45.042;38.994;2022-09-27T04:01:22;6.85;;;3.45;;
50683;SDS011;36654;45.042;38.994;2022-09-27T04:03:50;7.25;;;3.80;;
50683;SDS011;36654;45.042;38.994;2022-09-27T04:06:15;5.82;;;3.13;;
50683;SDS011;36654;45.042;38.994;2022-09-27T04:08:43;8.88;;;3.85;;
50683;SDS011;36654;45.042;38.994;2022-09-27T04:11:09;8.63;;;3.63;;
50683;SDS011;36654;45.042;38.994;2022-09-27T04:13:35;10.82;;;3.63;;
50683;SDS011;36654;45.042;38.994;2022-09-27T04:16:00;10.02;;;3.45;;
50683;SDS011;36654;45.042;38.994;2022-09-27T04:18:27;9.63;;;3.88;;
50683;SDS011;36654;45.042;38.994;2022-09-27T04:20:52;10.27;;;3.55;;
50683;SDS011;36654;45.042;38.994;2022-09-27T04:23:18;9.73;;;3.95;;
50683;SDS011;36654;45.042;38.994;2022-09-27T04:25:45;12.98;;;3.72;;
50683;SDS011;36654;45.042;38.994;2022-09-27T04:28:11;7.00;;;3.97;;
50683;SDS011;36654;45.042;38.994;2022-09-27T04:30:37;8.45;;;3.65;;
50683;SDS011;36654;45.042;38.994;2022-09-27T04:33:02;5.70;;;3.25;;
50683;SDS011;36654;45.042;38.994;2022-09-27T04:35:29;13.32;;;4.00;;
50683;SDS011;36654;45.042;38.994;2022-09-27T04:38:13;9.68;;;3.72;;
50683;SDS011;36654;45.042;38.994;2022-09-27T04:40:39;13.65;;;4.38;;
50683;SDS011;36654;45.042;38.994;2022-09-27T04:43:05;12.00;;;3.78;;
50683;SDS011;36654;45.042;38.994;2022-09-27T04:45:32;7.10;;;3.78;;
50683;SDS011;36654;45.042;38.994;2022-09-27T04:47:58;8.13;;;3.95;;
50683;SDS011;36654;45.042;38.994;2022-09-27T04:50:23;6.45;;;3.70;;
50683;SDS011;36654;45.042;38.994;2022-09-27T04:52:50;9.98;;;4.30;;
50683;SDS011;36654;45.042;38.994;2022-09-27T04:55:16;11.50;;;4.50;;
50683;SDS011;36654;45.042;38.994;2022-09-27T04:57:43;11.93;;;4.88;;
50683;SDS011;36654;45.042;38.994;2022-09-27T05:00:08;17.08;;;4.75;;
50683;SDS011;36654;45.042;38.994;2022-09-27T05:02:34;18.63;;;5.45;;
50683;SDS011;36654;45.042;38.994;2022-09-27T05:05:00;10.05;;;4.85;;
50683;SDS011;36654;45.042;38.994;2022-09-27T05:07:26;10.45;;;4.97;;
50683;SDS011;36654;45.042;38.994;2022-09-27T05:09:52;13.65;;;5.25;;
50683;SDS011;36654;45.042;38.994;2022-09-27T05:12:18;25.05;;;5.47;;
50683;SDS011;36654;45.042;38.994;2022-09-27T05:14:44;17.08;;;5.80;;
50683;SDS011;36654;45.042;38.994;2022-09-27T05:17:10;19.40;;;6.47;;
50683;SDS011;36654;45.042;38.994;2022-09-27T05:19:36;19.95;;;6.13;;
50683;SDS011;36654;45.042;38.994;2022-09-27T05:22:04;19.35;;;6.22;;
50683;SDS011;36654;45.042;38.994;2022-09-27T05:24:30;14.63;;;7.05;;
50683;SDS011;36654;45.042;38.994;2022-09-27T05:26:57;15.07;;;7.10;;
50683;SDS011;36654;45.042;38.994;2022-09-27T05:29:23;14.90;;;6.65;;
50683;SDS011;36654;45.042;38.994;2022-09-27T05:31:49;17.77;;;6.70;;
50683;SDS011;36654;45.042;38.994;2022-09-27T05:34:15;17.88;;;6.50;;
50683;SDS011;36654;45.042;38.994;2022-09-27T05:36:45;16.42;;;6.45;;
50683;SDS011;36654;45.042;38.994;2022-09-27T05:39:11;19.70;;;6.43;;
50683;SDS011;36654;45.042;38.994;2022-09-27T05:41:37;19.60;;;7.45;;
50683;SDS011;36654;45.042;38.994;2022-09-27T05:44:05;17.50;;;5.82;;
50683;SDS011;36654;45.042;38.994;2022-09-27T05:46:30;22.23;;;6.90;;
50683;SDS011;36654;45.042;38.994;2022-09-27T05:48:56;21.90;;;6.88;;
50683;SDS011;36654;45.042;38.994;2022-09-27T05:51:22;17.60;;;6.60;;
50683;SDS011;36654;45.042;38.994;2022-09-27T05:53:47;16.60;;;6.70;;
50683;SDS011;36654;45.042;38.994;2022-09-27T05:56:13;14.05;;;6.90;;
50683;SDS011;36654;45.042;38.994;2022-09-27T05:58:39;19.17;;;6.88;;
50683;SDS011;36654;45.042;38.994;2022-09-27T06:01:05;20.25;;;7.07;;
50683;SDS011;36654;45.042;38.994;2022-09-27T06:03:32;18.63;;;7.00;;
50683;SDS011;36654;45.042;38.994;2022-09-27T06:06:00;20.52;;;7.38;;
50683;SDS011;36654;45.042;38.994;2022-09-27T06:08:31;19.08;;;6.72;;
50683;SDS011;36654;45.042;38.994;2022-09-27T06:11:03;17.38;;;6.93;;
50683;SDS011;36654;45.042;38.994;2022-09-27T06:13:30;24.38;;;7.43;;
50683;SDS011;36654;45.042;38.994;2022-09-27T06:16:00;22.65;;;7.43;;
50683;SDS011;36654;45.042;38.994;2022-09-27T06:18:27;20.30;;;7.03;;
50683;SDS011;36654;45.042;38.994;2022-09-27T06:20:53;13.52;;;6.45;;
50683;SDS011;36654;45.042;38.994;2022-09-27T06:23:20;17.30;;;6.47;;
50683;SDS011;36654;45.042;38.994;2022-09-27T06:25:47;13.98;;;6.80;;
50683;SDS011;36654;45.042;38.994;2022-09-27T06:28:15;15.18;;;6.18;;
50683;SDS011;36654;45.042;38.994;2022-09-27T06:30:45;12.57;;;6.03;;
50683;SDS011;36654;45.042;38.994;2022-09-27T06:33:16;19.17;;;5.63;;
50683;SDS011;36654;45.042;38.994;2022-09-27T06:35:44;17.88;;;6.00;;
50683;SDS011;36654;45.042;38.994;2022-09-27T06:38:13;18.20;;;6.10;;
50683;SDS011;36654;45.042;38.994;2022-09-27T06:40:42;21.52;;;5.90;;
50683;SDS011;36654;45.042;38.994;2022-09-27T06:43:16;15.88;;;5.63;;
50683;SDS011;36654;45.042;38.994;2022-09-27T06:45:43;23.33;;;6.95;;
50683;SDS011;36654;45.042;38.994;2022-09-27T06:48:10;19.70;;;5.75;;
50683;SDS011;36654;45.042;38.994;2022-09-27T06:50:40;20.60;;;6.07;;
50683;SDS011;36654;45.042;38.994;2022-09-27T06:53:21;14.07;;;4.45;;
50683;SDS011;36654;45.042;38.994;2022-09-27T06:55:47;15.95;;;5.65;;
50683;SDS011;36654;45.042;38.994;2022-09-27T06:58:13;11.60;;;3.97;;
50683;SDS011;36654;45.042;38.994;2022-09-27T07:00:57;10.48;;;3.97;;
50683;SDS011;36654;45.042;38.994;2022-09-27T07:03:23;4.65;;;3.03;;
50683;SDS011;36654;45.042;38.994;2022-09-27T07:06:02;11.77;;;3.53;;
50683;SDS011;36654;45.042;38.994;2022-09-27T07:08:30;12.93;;;4.32;;
50683;SDS011;36654;45.042;38.994;2022-09-27T07:11:00;11.63;;;3.13;;
50683;SDS011;36654;45.042;38.994;2022-09-27T07:13:27;9.88;;;4.05;;
50683;SDS011;36654;45.042;38.994;2022-09-27T07:15:55;9.25;;;3.40;;
50683;SDS011;36654;45.042;38.994;2022-09-27T07:18:21;9.35;;;3.25;;
50683;SDS011;36654;45.042;38.994;2022-09-27T07:20:46;12.65;;;3.53;;
50683;SDS011;36654;45.042;38.994;2022-09-27T07:23:13;6.50;;;3.03;;
50683;SDS011;36654;45.042;38.994;2022-09-27T07:25:39;14.50;;;4.65;;
50683;SDS011;36654;45.042;38.994;2022-09-27T07:28:06;12.18;;;3.47;;
50683;SDS011;36654;45.042;38.994;2022-09-27T07:30:32;7.35;;;3.00;;
50683;SDS011;36654;45.042;38.994;2022-09-27T07:33:00;9.43;;;3.45;;
50683;SDS011;36654;45.042;38.994;2022-09-27T07:35:27;6.30;;;2.65;;
50683;SDS011;36654;45.042;38.994;2022-09-27T07:37:54;6.55;;;3.38;;
50683;SDS011;36654;45.042;38.994;2022-09-27T07:40:21;7.63;;;3.72;;
50683;SDS011;36654;45.042;38.994;2022-09-27T07:42:46;11.15;;;3.47;;
50683;SDS011;36654;45.042;38.994;2022-09-27T07:45:12;10.82;;;2.90;;
50683;SDS011;36654;45.042;38.994;2022-09-27T07:47:38;5.53;;;2.78;;
50683;SDS011;36654;45.042;38.994;2022-09-27T07:50:06;4.90;;;2.75;;
50683;SDS011;36654;45.042;38.994;2022-09-27T07:52:39;5.82;;;2.55;;
50683;SDS011;36654;45.042;38.994;2022-09-27T07:55:10;7.38;;;2.85;;
50683;SDS011;36654;45.042;38.994;2022-09-27T07:57:37;8.45;;;2.97;;
50683;SDS011;36654;45.042;38.994;2022-09-27T08:00:04;5.13;;;2.83;;
50683;SDS011;36654;45.042;38.994;2022-09-27T08:02:31;5.57;;;3.13;;
50683;SDS011;36654;45.042;38.994;2022-09-27T08:05:00;8.90;;;3.63;;
50683;SDS011;36654;45.042;38.994;2022-09-27T08:07:26;8.23;;;3.45;;
50683;SDS011;36654;45.042;38.994;2022-09-27T08:09:53;8.85;;;3.40;;
50683;SDS011;36654;45.042;38.994;2022-09-27T08:12:19;8.30;;;3.47;;
50683;SDS011;36654;45.042;38.994;2022-09-27T08:14:47;9.98;;;3.45;;
50683;SDS011;36654;45.042;38.994;2022-09-27T08:17:13;8.00;;;3.30;;
50683;SDS011;36654;45.042;38.994;2022-09-27T08:19:40;7.28;;;2.75;;
50683;SDS011;36654;45.042;38.994;2022-09-27T08:22:06;4.63;;;2.72;;
50683;SDS011;36654;45.042;38.994;2022-09-27T08:24:32;6.25;;;3.03;;
50683;SDS011;36654;45.042;38.994;2022-09-27T08:26:58;5.18;;;2.75;;
50683;SDS011;36654;45.042;38.994;2022-09-27T08:29:24;5.63;;;2.72;;
50683;SDS011;36654;45.042;38.994;2022-09-27T08:31:50;6.57;;;2.88;;
50683;SDS011;36654;45.042;38.994;2022-09-27T08:34:18;6.57;;;2.90;;
50683;SDS011;36654;45.042;38.994;2022-09-27T08:36:44;3.78;;;2.60;;
50683;SDS011;36654;45.042;38.994;2022-09-27T08:39:10;3.03;;;2.10;;
50683;SDS011;36654;45.042;38.994;2022-09-27T08:52:55;7.47;;;3.20;;
50683;SDS011;36654;45.042;38.994;2022-09-27T08:58:35;5.35;;;3.10;;
50683;SDS011;36654;45.042;38.994;2022-09-27T09:01:05;4.90;;;3.25;;
50683;SDS011;36654;45.042;38.994;2022-09-27T09:03:43;5.72;;;2.50;;
50683;SDS011;36654;45.042;38.994;2022-09-27T09:11:24;8.48;;;2.92;;
50683;SDS011;36654;45.042;38.994;2022-09-27T09:20:00;8.82;;;3.80;;
50683;SDS011;36654;45.042;38.994;2022-09-27T09:23:01;7.60;;;3.00;;
50683;SDS011;36654;45.042;38.994;2022-09-27T09:28:50;6.80;;;3.20;;
50683;SDS011;36654;45.042;38.994;2022-09-27T09:34:17;5.55;;;2.90;;
50683;SDS011;36654;45.042;38.994;2022-09-27T09:37:04;6.13;;;3.25;;
50683;SDS011;36654;45.042;38.994;2022-09-27T09:42:13;3.60;;;2.63;;
50683;SDS011;36654;45.042;38.994;2022-09-27T09:45:04;5.22;;;2.83;;
50683;SDS011;36654;45.042;38.994;2022-09-27T09:47:56;4.18;;;2.88;;
50683;SDS011;36654;45.042;38.994;2022-09-27T09:50:30;5.70;;;2.80;;
50683;SDS011;36654;45.042;38.994;2022-09-27T09:53:20;7.88;;;2.83;;
50683;SDS011;36654;45.042;38.994;2022-09-27T09:56:03;6.20;;;2.55;;
50683;SDS011;36654;45.042;38.994;2022-09-27T09:58:43;5.78;;;2.97;;
50683;SDS011;36654;45.042;38.994;2022-09-27T10:01:20;4.20;;;2.30;;
50683;SDS011;36654;45.042;38.994;2022-09-27T10:03:49;5.47;;;2.83;;
50683;SDS011;36654;45.042;38.994;2022-09-27T10:06:15;5.05;;;2.70;;
50683;SDS011;36654;45.042;38.994;2022-09-27T10:08:42;4.93;;;2.92;;
50683;SDS011;36654;45.042;38.994;2022-09-27T10:14:29;6.57;;;3.15;;
50683;SDS011;36654;45.042;38.994;2022-09-27T10:16:58;3.95;;;2.67;;
50683;SDS011;36654;45.042;38.994;2022-09-27T10:19:28;10.48;;;4.22;;
50683;SDS011;36654;45.042;38.994;2022-09-27T10:21:58;7.38;;;3.25;;
50683;SDS011;36654;45.042;38.994;2022-09-27T10:24:27;5.35;;;3.60;;
50683;SDS011;36654;45.042;38.994;2022-09-27T10:26:56;6.32;;;3.38;;
50683;SDS011;36654;45.042;38.994;2022-09-27T10:29:34;9.00;;;4.07;;
50683;SDS011;36654;45.042;38.994;2022-09-27T10:32:01;10.57;;;4.90;;
50683;SDS011;36654;45.042;38.994;2022-09-27T10:37:16;10.68;;;3.65;;
50683;SDS011;36654;45.042;38.994;2022-09-27T10:39:44;8.20;;;4.63;;
50683;SDS011;36654;45.042;38.994;2022-09-27T10:48:17;16.70;;;8.88;;
50683;SDS011;36654;45.042;38.994;2022-09-27T10:50:58;14.10;;;5.25;;
50683;SDS011;36654;45.042;38.994;2022-09-27T10:53:29;12.07;;;4.65;;
50683;SDS011;36654;45.042;38.994;2022-09-27T10:55:56;12.90;;;5.05;;
50683;SDS011;36654;45.042;38.994;2022-09-27T11:01:10;11.60;;;5.60;;
50683;SDS011;36654;45.042;38.994;2022-09-27T11:03:45;10.82;;;4.57;;
50683;SDS011;36654;45.042;38.994;2022-09-27T11:06:19;12.10;;;4.22;;
50683;SDS011;36654;45.042;38.994;2022-09-27T11:08:53;11.13;;;5.05;;
50683;SDS011;36654;45.042;38.994;2022-09-27T11:11:23;15.02;;;5.57;;
50683;SDS011;36654;45.042;38.994;2022-09-27T11:14:03;10.43;;;5.45;;
50683;SDS011;36654;45.042;38.994;2022-09-27T11:16:59;10.15;;;4.80;;
50683;SDS011;36654;45.042;38.994;2022-09-27T11:19:38;6.57;;;3.65;;
50683;SDS011;36654;45.042;38.994;2022-09-27T11:22:22;7.90;;;3.63;;
50683;SDS011;36654;45.042;38.994;2022-09-27T11:30:22;4.72;;;2.78;;
50683;SDS011;36654;45.042;38.994;2022-09-27T11:38:57;6.30;;;2.25;;
50683;SDS011;36654;45.042;38.994;2022-09-27T11:46:35;5.13;;;2.67;;
50683;SDS011;36654;45.042;38.994;2022-09-27T11:55:00;7.93;;;3.42;;
50683;SDS011;36654;45.042;38.994;2022-09-27T11:57:38;8.77;;;2.75;;
50683;SDS011;36654;45.042;38.994;2022-09-27T12:05:44;4.25;;;2.53;;
50683;SDS011;36654;45.042;38.994;2022-09-27T12:08:19;4.80;;;2.83;;
50683;SDS011;36654;45.042;38.994;2022-09-27T12:14:02;5.68;;;2.45;;
50683;SDS011;36654;45.042;38.994;2022-09-27T12:16:33;5.43;;;2.58;;
50683;SDS011;36654;45.042;38.994;2022-09-27T12:21:29;9.20;;;3.67;;
50683;SDS011;36654;45.042;38.994;2022-09-27T12:23:57;14.10;;;6.65;;
50683;SDS011;36654;45.042;38.994;2022-09-27T12:26:37;18.95;;;7.55;;
50683;SDS011;36654;45.042;38.994;2022-09-27T12:37:26;13.55;;;6.90;;
50683;SDS011;36654;45.042;38.994;2022-09-27T12:39:58;16.77;;;7.82;;
50683;SDS011;36654;45.042;38.994;2022-09-27T12:42:44;12.07;;;6.63;;
50683;SDS011;36654;45.042;38.994;2022-09-27T12:45:15;9.73;;;6.32;;
50683;SDS011;36654;45.042;38.994;2022-09-27T12:53:12;14.13;;;6.80;;
50683;SDS011;36654;45.042;38.994;2022-09-27T12:58:57;10.48;;;5.10;;
50683;SDS011;36654;45.042;38.994;2022-09-27T13:04:09;8.20;;;4.47;;
50683;SDS011;36654;45.042;38.994;2022-09-27T13:09:46;10.00;;;4.43;;
50683;SDS011;36654;45.042;38.994;2022-09-27T13:12:26;9.32;;;3.50;;
50683;SDS011;36654;45.042;38.994;2022-09-27T13:22:54;4.72;;;2.47;;
50683;SDS011;36654;45.042;38.994;2022-09-27T13:31:14;10.70;;;2.50;;
50683;SDS011;36654;45.042;38.994;2022-09-27T13:49:56;5.55;;;2.47;;
50683;SDS011;36654;45.042;38.994;2022-09-27T13:52:37;5.53;;;2.70;;
50683;SDS011;36654;45.042;38.994;2022-09-27T13:55:36;3.42;;;2.72;;
50683;SDS011;36654;45.042;38.994;2022-09-27T14:00:57;6.20;;;3.17;;
50683;SDS011;36654;45.042;38.994;2022-09-27T14:03:30;2.70;;;2.38;;
50683;SDS011;36654;45.042;38.994;2022-09-27T14:06:12;6.03;;;2.65;;
50683;SDS011;36654;45.042;38.994;2022-09-27T14:08:51;6.05;;;2.72;;
50683;SDS011;36654;45.042;38.994;2022-09-27T14:11:26;4.40;;;2.55;;
50683;SDS011;36654;45.042;38.994;2022-09-27T14:14:01;4.07;;;2.50;;
50683;SDS011;36654;45.042;38.994;2022-09-27T14:16:34;6.70;;;3.13;;
50683;SDS011;36654;45.042;38.994;2022-09-27T14:19:05;6.68;;;2.80;;
50683;SDS011;36654;45.042;38.994;2022-09-27T14:21:42;8.23;;;3.08;;
50683;SDS011;36654;45.042;38.994;2022-09-27T14:27:12;5.53;;;2.97;;
50683;SDS011;36654;45.042;38.994;2022-09-27T14:29:41;5.65;;;3.00;;
50683;SDS011;36654;45.042;38.994;2022-09-27T14:32:30;9.73;;;3.15;;
50683;SDS011;36654;45.042;38.994;2022-09-27T14:35:05;9.07;;;3.60;;
50683;SDS011;36654;45.042;38.994;2022-09-27T14:37:58;7.53;;;3.20;;
50683;SDS011;36654;45.042;38.994;2022-09-27T14:40:25;4.38;;;2.58;;
50683;SDS011;36654;45.042;38.994;2022-09-27T14:42:54;4.75;;;2.63;;
50683;SDS011;36654;45.042;38.994;2022-09-27T14:45:25;6.85;;;2.72;;
50683;SDS011;36654;45.042;38.994;2022-09-27T14:48:31;5.03;;;2.85;;
50683;SDS011;36654;45.042;38.994;2022-09-27T14:53:41;4.65;;;2.80;;
50683;SDS011;36654;45.042;38.994;2022-09-27T14:56:14;7.13;;;3.05;;
50683;SDS011;36654;45.042;38.994;2022-09-27T14:58:42;6.45;;;3.53;;
50683;SDS011;36654;45.042;38.994;2022-09-27T15:01:16;8.77;;;4.78;;
50683;SDS011;36654;45.042;38.994;2022-09-27T15:03:47;9.48;;;6.13;;
50683;SDS011;36654;45.042;38.994;2022-09-27T15:06:15;9.75;;;5.03;;
50683;SDS011;36654;45.042;38.994;2022-09-27T15:08:41;6.38;;;3.70;;
50683;SDS011;36654;45.042;38.994;2022-09-27T15:11:11;6.53;;;3.53;;
50683;SDS011;36654;45.042;38.994;2022-09-27T15:13:37;12.23;;;4.38;;
50683;SDS011;36654;45.042;38.994;2022-09-27T15:16:12;10.32;;;4.10;;
50683;SDS011;36654;45.042;38.994;2022-09-27T15:18:43;9.07;;;3.90;;
50683;SDS011;36654;45.042;38.994;2022-09-27T15:21:15;8.00;;;3.88;;
50683;SDS011;36654;45.042;38.994;2022-09-27T15:23:53;5.78;;;3.20;;
50683;SDS011;36654;45.042;38.994;2022-09-27T15:26:26;8.18;;;3.25;;
50683;SDS011;36654;45.042;38.994;2022-09-27T15:29:03;6.05;;;3.60;;
50683;SDS011;36654;45.042;38.994;2022-09-27T15:31:30;9.68;;;3.65;;
50683;SDS011;36654;45.042;38.994;2022-09-27T15:34:00;10.40;;;4.28;;
50683;SDS011;36654;45.042;38.994;2022-09-27T15:39:14;13.57;;;5.25;;
50683;SDS011;36654;45.042;38.994;2022-09-27T15:44:45;7.47;;;4.03;;
50683;SDS011;36654;45.042;38.994;2022-09-27T15:52:41;9.85;;;4.70;;
50683;SDS011;36654;45.042;38.994;2022-09-27T15:55:12;12.38;;;4.60;;
50683;SDS011;36654;45.042;38.994;2022-09-27T15:57:41;9.50;;;4.65;;
50683;SDS011;36654;45.042;38.994;2022-09-27T16:00:11;9.48;;;4.95;;
50683;SDS011;36654;45.042;38.994;2022-09-27T16:02:40;12.82;;;5.80;;
50683;SDS011;36654;45.042;38.994;2022-09-27T16:05:06;12.18;;;5.40;;
50683;SDS011;36654;45.042;38.994;2022-09-27T16:07:32;11.65;;;5.72;;
50683;SDS011;36654;45.042;38.994;2022-09-27T16:09:58;9.15;;;5.88;;
50683;SDS011;36654;45.042;38.994;2022-09-27T16:12:24;13.05;;;5.80;;
50683;SDS011;36654;45.042;38.994;2022-09-27T16:14:51;13.68;;;5.53;;
50683;SDS011;36654;45.042;38.994;2022-09-27T16:17:17;13.13;;;5.97;;
50683;SDS011;36654;45.042;38.994;2022-09-27T16:19:42;11.00;;;6.18;;
50683;SDS011;36654;45.042;38.994;2022-09-27T16:22:08;10.18;;;6.07;;
50683;SDS011;36654;45.042;38.994;2022-09-27T16:24:33;12.25;;;5.20;;
50683;SDS011;36654;45.042;38.994;2022-09-27T16:26:59;10.45;;;4.65;;
50683;SDS011;36654;45.042;38.994;2022-09-27T16:29:25;6.68;;;4.03;;
50683;SDS011;36654;45.042;38.994;2022-09-27T16:31:50;11.52;;;4.80;;
50683;SDS011;36654;45.042;38.994;2022-09-27T16:34:17;11.32;;;5.55;;
50683;SDS011;36654;45.042;38.994;2022-09-27T16:36:43;7.97;;;6.32;;
50683;SDS011;36654;45.042;38.994;2022-09-27T16:39:10;8.82;;;4.97;;
50683;SDS011;36654;45.042;38.994;2022-09-27T16:41:37;8.73;;;4.47;;
50683;SDS011;36654;45.042;38.994;2022-09-27T16:44:11;12.35;;;5.63;;
50683;SDS011;36654;45.042;38.994;2022-09-27T16:46:41;10.13;;;6.32;;
50683;SDS011;36654;45.042;38.994;2022-09-27T16:49:11;13.35;;;6.90;;
50683;SDS011;36654;45.042;38.994;2022-09-27T16:51:55;11.75;;;6.78;;
50683;SDS011;36654;45.042;38.994;2022-09-27T16:54:24;15.23;;;6.93;;
50683;SDS011;36654;45.042;38.994;2022-09-27T16:56:52;11.18;;;5.85;;
50683;SDS011;36654;45.042;38.994;2022-09-27T16:59:18;13.75;;;5.68;;
50683;SDS011;36654;45.042;38.994;2022-09-27T17:01:45;11.90;;;6.07;;
50683;SDS011;36654;45.042;38.994;2022-09-27T17:04:11;10.82;;;5.38;;
50683;SDS011;36654;45.042;38.994;2022-09-27T17:06:38;14.25;;;6.97;;
50683;SDS011;36654;45.042;38.994;2022-09-27T17:09:04;11.50;;;4.97;;
50683;SDS011;36654;45.042;38.994;2022-09-27T17:11:31;12.25;;;5.72;;
50683;SDS011;36654;45.042;38.994;2022-09-27T17:13:57;15.38;;;5.65;;
50683;SDS011;36654;45.042;38.994;2022-09-27T17:16:24;15.88;;;5.82;;
50683;SDS011;36654;45.042;38.994;2022-09-27T17:18:50;13.48;;;5.70;;
50683;SDS011;36654;45.042;38.994;2022-09-27T17:21:16;12.75;;;5.70;;
50683;SDS011;36654;45.042;38.994;2022-09-27T17:23:42;13.65;;;6.28;;
50683;SDS011;36654;45.042;38.994;2022-09-27T17:26:13;12.35;;;6.10;;
50683;SDS011;36654;45.042;38.994;2022-09-27T17:28:44;23.02;;;7.28;;
50683;SDS011;36654;45.042;38.994;2022-09-27T17:31:14;15.48;;;7.07;;
50683;SDS011;36654;45.042;38.994;2022-09-27T17:33:45;17.83;;;6.78;;
50683;SDS011;36654;45.042;38.994;2022-09-27T17:36:14;22.50;;;8.40;;
50683;SDS011;36654;45.042;38.994;2022-09-27T17:38:42;16.17;;;6.68;;
50683;SDS011;36654;45.042;38.994;2022-09-27T17:41:09;16.83;;;6.75;;
50683;SDS011;36654;45.042;38.994;2022-09-27T17:43:37;13.00;;;7.10;;
50683;SDS011;36654;45.042;38.994;2022-09-27T17:46:10;14.10;;;7.45;;
50683;SDS011;36654;45.042;38.994;2022-09-27T17:48:36;11.75;;;7.65;;
50683;SDS011;36654;45.042;38.994;2022-09-27T17:51:21;16.88;;;6.97;;
50683;SDS011;36654;45.042;38.994;2022-09-27T17:53:48;14.00;;;7.45;;
50683;SDS011;36654;45.042;38.994;2022-09-27T17:56:14;12.38;;;7.88;;
50683;SDS011;36654;45.042;38.994;2022-09-27T17:58:46;15.18;;;7.50;;
50683;SDS011;36654;45.042;38.994;2022-09-27T18:01:12;11.30;;;6.32;;
50683;SDS011;36654;45.042;38.994;2022-09-27T18:03:39;18.50;;;7.90;;
50683;SDS011;36654;45.042;38.994;2022-09-27T18:06:08;11.18;;;6.63;;